createdAt,value
2017-05-17T00:01:20.997Z,3.38
2017-05-17T00:03:47.757Z,4.22
2017-05-17T00:06:15.389Z,3.78
2017-05-17T00:08:42.780Z,4.13
2017-05-17T00:11:09.541Z,3.50
2017-05-17T00:13:36.294Z,3.90
2017-05-17T00:16:03.398Z,4.10
2017-05-17T00:18:30.153Z,3.80
2017-05-17T00:20:56.908Z,3.58
2017-05-17T00:23:24.012Z,3.44
2017-05-17T00:25:50.795Z,4.18
2017-05-17T00:28:17.555Z,3.27
2017-05-17T00:30:44.797Z,4.20
2017-05-17T00:33:11.551Z,3.82
2017-05-17T00:35:44.857Z,4.40
2017-05-17T00:38:17.398Z,3.57
2017-05-17T00:40:50.232Z,4.35
2017-05-17T00:43:22.885Z,3.02
2017-05-17T00:45:55.868Z,4.10
2017-05-17T00:48:28.428Z,4.58
2017-05-17T00:51:01.340Z,3.50
2017-05-17T00:53:28.109Z,4.18
2017-05-17T00:55:54.868Z,4.17
2017-05-17T00:58:22.104Z,4.17
2017-05-17T01:00:48.870Z,4.30
2017-05-17T01:03:15.639Z,4.63
2017-05-17T01:05:42.726Z,3.98
2017-05-17T01:08:09.494Z,4.25
2017-05-17T01:10:36.248Z,3.90
2017-05-17T01:13:03.448Z,4.95
2017-05-17T01:15:30.210Z,3.88
2017-05-17T01:17:56.962Z,4.75
2017-05-17T01:20:24.021Z,5.30
2017-05-17T01:22:50.781Z,5.48
2017-05-17T01:25:17.542Z,4.95
2017-05-17T01:27:44.603Z,5.13
2017-05-17T01:30:11.353Z,5.20
2017-05-17T01:32:38.105Z,4.12
2017-05-17T01:35:05.146Z,5.03
2017-05-17T01:37:31.902Z,5.10
2017-05-17T01:39:58.671Z,5.47
2017-05-17T01:42:26.144Z,5.87
2017-05-17T01:44:52.911Z,6.42
2017-05-17T01:47:19.668Z,5.47
2017-05-17T01:49:46.731Z,5.73
2017-05-17T01:52:13.509Z,5.50
2017-05-17T01:54:41.760Z,5.57
2017-05-17T01:57:08.848Z,5.87
2017-05-17T01:59:35.609Z,5.15
2017-05-17T02:02:02.373Z,4.82
2017-05-17T02:04:29.665Z,5.07
2017-05-17T02:06:56.423Z,5.80
2017-05-17T02:09:23.180Z,6.40
2017-05-17T02:11:50.445Z,5.30
2017-05-17T02:14:17.197Z,5.88
2017-05-17T02:16:43.955Z,6.50
2017-05-17T02:19:11.045Z,5.72
2017-05-17T02:21:37.802Z,5.00
2017-05-17T02:24:04.576Z,5.33
2017-05-17T02:26:31.616Z,6.90
2017-05-17T02:28:58.386Z,5.15
2017-05-17T02:31:25.167Z,5.57
2017-05-17T02:33:52.496Z,5.43
2017-05-17T02:36:19.255Z,5.80
2017-05-17T02:38:46.029Z,5.70
2017-05-17T02:41:13.333Z,6.10
2017-05-17T02:43:40.082Z,6.13
2017-05-17T02:46:06.846Z,6.88
2017-05-17T02:48:33.897Z,6.27
2017-05-17T02:51:00.661Z,6.72
2017-05-17T02:53:27.418Z,6.58
2017-05-17T02:55:54.976Z,6.50
2017-05-17T02:58:21.729Z,7.72
2017-05-17T03:00:48.484Z,6.37
2017-05-17T03:03:15.525Z,6.33
2017-05-17T03:05:42.290Z,6.47
2017-05-17T03:08:09.058Z,6.00
2017-05-17T03:10:36.844Z,5.97
2017-05-17T03:13:03.669Z,6.25
2017-05-17T03:15:30.430Z,6.10
2017-05-17T03:17:57.239Z,6.32
2017-05-17T03:20:24.009Z,6.73
2017-05-17T03:22:50.765Z,6.35
2017-05-17T03:25:17.547Z,6.52
2017-05-17T03:27:44.317Z,6.53
2017-05-17T03:30:11.065Z,5.67
2017-05-17T03:32:37.879Z,6.35
2017-05-17T03:35:04.666Z,6.78
2017-05-17T03:37:31.442Z,6.15
2017-05-17T03:39:58.254Z,5.97
2017-05-17T03:42:25.025Z,6.32
2017-05-17T03:44:51.777Z,5.80
2017-05-17T03:47:18.582Z,6.37
2017-05-17T03:49:45.335Z,5.30
2017-05-17T03:52:12.102Z,5.57
2017-05-17T03:54:38.901Z,5.58
2017-05-17T03:57:05.671Z,5.80
2017-05-17T03:59:32.429Z,5.35
2017-05-17T04:01:59.225Z,5.32
2017-05-17T04:04:25.988Z,4.87
2017-05-17T04:06:52.748Z,5.07
2017-05-17T04:09:19.556Z,5.32
2017-05-17T04:11:46.313Z,4.88
2017-05-17T04:14:13.078Z,4.60
2017-05-17T04:16:39.883Z,4.90
2017-05-17T04:19:06.666Z,5.28
2017-05-17T04:21:33.421Z,4.80
2017-05-17T04:24:00.474Z,4.68
2017-05-17T04:26:27.235Z,5.43
2017-05-17T04:28:53.988Z,5.27
2017-05-17T04:31:21.045Z,5.42
2017-05-17T04:33:47.827Z,4.48
2017-05-17T04:36:14.586Z,6.38
2017-05-17T04:38:41.641Z,5.60
2017-05-17T04:41:08.400Z,5.28
2017-05-17T04:43:35.923Z,5.67
2017-05-17T04:46:03.096Z,6.07
2017-05-17T04:48:29.865Z,6.02
2017-05-17T04:50:56.618Z,5.17
2017-05-17T04:53:23.689Z,5.48
2017-05-17T04:55:50.441Z,5.40
2017-05-17T04:58:17.208Z,5.48
2017-05-17T05:00:44.246Z,5.78
2017-05-17T05:03:11.005Z,7.06
2017-05-17T05:05:37.779Z,7.22
2017-05-17T05:08:04.861Z,6.12
2017-05-17T05:10:31.621Z,5.66
2017-05-17T05:12:58.385Z,6.12
2017-05-17T05:15:25.689Z,5.85
2017-05-17T05:17:52.445Z,5.28
2017-05-17T05:20:19.189Z,5.24
2017-05-17T05:22:46.526Z,4.92
2017-05-17T05:25:13.341Z,5.95
2017-05-17T05:27:40.093Z,5.07
2017-05-17T05:30:07.174Z,5.38
2017-05-17T05:32:33.923Z,5.58
2017-05-17T05:35:00.680Z,5.98
2017-05-17T05:37:27.860Z,4.63
2017-05-17T05:39:54.621Z,5.77
2017-05-17T05:42:21.384Z,4.97
2017-05-17T05:44:48.513Z,5.54
2017-05-17T05:47:15.271Z,5.08
2017-05-17T05:49:42.017Z,4.72
2017-05-17T05:52:09.355Z,4.98
2017-05-17T05:54:36.113Z,4.05
2017-05-17T05:57:02.861Z,6.36
2017-05-17T05:59:30.257Z,4.56
2017-05-17T06:01:57.240Z,5.14
2017-05-17T06:04:23.980Z,5.20
2017-05-17T06:06:51.029Z,5.54
2017-05-17T06:09:17.781Z,4.90
2017-05-17T06:11:44.528Z,4.82
2017-05-17T06:14:11.585Z,5.18
2017-05-17T06:16:38.355Z,4.44
2017-05-17T06:19:05.122Z,5.22
2017-05-17T06:21:32.193Z,4.40
2017-05-17T06:23:58.939Z,4.68
2017-05-17T06:26:25.689Z,4.80
2017-05-17T06:28:52.989Z,3.98
2017-05-17T06:31:19.760Z,6.10
2017-05-17T06:33:46.525Z,5.32
2017-05-17T06:36:13.714Z,5.38
2017-05-17T06:38:40.460Z,4.66
2017-05-17T06:41:07.220Z,4.96
2017-05-17T06:43:34.716Z,5.46
2017-05-17T06:46:02.446Z,5.18
2017-05-17T06:48:29.188Z,5.72
2017-05-17T06:50:56.530Z,5.68
2017-05-17T06:53:23.274Z,5.50
2017-05-17T06:55:50.033Z,5.38
2017-05-17T06:58:17.320Z,6.08
2017-05-17T07:00:44.074Z,5.44
2017-05-17T07:03:10.830Z,4.76
2017-05-17T07:05:37.888Z,6.06
2017-05-17T07:08:04.639Z,5.22
2017-05-17T07:10:31.394Z,5.34
2017-05-17T07:12:58.537Z,5.16
2017-05-17T07:15:25.305Z,5.04
2017-05-17T07:17:52.059Z,4.78
2017-05-17T07:20:19.978Z,4.34
2017-05-17T07:22:47.596Z,5.30
2017-05-17T07:25:14.349Z,4.92
2017-05-17T07:27:41.380Z,4.68
2017-05-17T07:30:08.155Z,4.22
2017-05-17T07:32:34.915Z,4.40
2017-05-17T07:35:01.958Z,5.08
2017-05-17T07:37:28.725Z,4.90
2017-05-17T07:39:55.481Z,4.62
2017-05-17T07:42:22.526Z,4.28
2017-05-17T07:44:49.264Z,3.74
2017-05-17T07:47:16.022Z,3.50
2017-05-17T07:49:43.080Z,3.30
2017-05-17T07:52:09.849Z,3.36
2017-05-17T07:54:36.602Z,3.58
2017-05-17T07:57:03.893Z,4.12
2017-05-17T07:59:30.650Z,3.44
2017-05-17T08:01:57.407Z,2.92
2017-05-17T08:04:24.453Z,2.56
2017-05-17T08:06:51.212Z,2.50
2017-05-17T08:09:17.961Z,2.72
2017-05-17T08:11:45.023Z,2.80
2017-05-17T08:14:11.776Z,2.68
2017-05-17T08:16:38.529Z,2.76
2017-05-17T08:19:06.021Z,2.60
2017-05-17T08:21:32.785Z,2.36
2017-05-17T08:24:00.737Z,2.78
2017-05-17T08:26:27.824Z,2.50
2017-05-17T08:28:54.573Z,2.54
2017-05-17T08:31:21.317Z,2.44
2017-05-17T08:33:48.336Z,2.30
2017-05-17T08:36:15.089Z,2.90
2017-05-17T08:38:41.847Z,2.28
2017-05-17T08:41:09.643Z,2.50
2017-05-17T08:43:36.700Z,2.72
2017-05-17T08:46:04.257Z,2.20
2017-05-17T08:48:32.113Z,2.42
2017-05-17T08:50:59.226Z,2.88
2017-05-17T08:53:25.995Z,2.48
2017-05-17T08:55:53.062Z,2.36
2017-05-17T08:58:19.823Z,2.48
2017-05-17T09:00:46.580Z,2.28
2017-05-17T09:03:13.625Z,2.52
2017-05-17T09:05:41.532Z,2.58
2017-05-17T09:08:08.287Z,2.44
2017-05-17T09:10:36.396Z,2.60
2017-05-17T09:13:03.165Z,2.44
2017-05-17T09:15:30.710Z,2.42
2017-05-17T09:17:57.794Z,1.92
2017-05-17T09:20:24.558Z,2.44
2017-05-17T09:22:55.590Z,2.54
2017-05-17T09:25:22.673Z,2.58
2017-05-17T09:27:49.438Z,2.16
2017-05-17T09:30:16.185Z,2.50
2017-05-17T09:32:43.983Z,2.68
2017-05-17T09:35:10.730Z,2.14
2017-05-17T09:37:37.495Z,2.92
2017-05-17T09:40:04.542Z,2.70
2017-05-17T09:42:31.292Z,2.80
2017-05-17T09:44:58.072Z,3.08
2017-05-17T09:47:25.197Z,2.60
2017-05-17T09:49:52.030Z,2.36
2017-05-17T09:52:18.782Z,2.28
2017-05-17T09:54:47.412Z,2.82
2017-05-17T09:57:14.152Z,2.74
2017-05-17T09:59:40.901Z,2.18
2017-05-17T10:02:07.950Z,2.70
2017-05-17T10:04:34.715Z,3.00
2017-05-17T10:07:01.466Z,2.42
2017-05-17T10:12:14.481Z,3.18
2017-05-17T10:14:41.267Z,2.42
2017-05-17T10:17:08.061Z,2.24
2017-05-17T10:19:35.156Z,2.42
2017-05-17T10:22:01.964Z,2.26
2017-05-17T10:24:28.771Z,1.92
2017-05-17T10:26:56.289Z,2.72
2017-05-17T10:29:24.925Z,3.06
2017-05-17T10:31:51.728Z,2.38
2017-05-17T10:34:18.777Z,2.60
2017-05-17T10:36:45.572Z,2.36
2017-05-17T10:39:12.371Z,2.44
2017-05-17T10:41:39.436Z,2.38
2017-05-17T10:44:06.262Z,2.22
2017-05-17T10:46:33.788Z,2.82
2017-05-17T10:49:01.022Z,2.38
2017-05-17T10:51:28.637Z,2.22
2017-05-17T10:53:55.640Z,2.20
2017-05-17T10:56:22.785Z,2.30
2017-05-17T10:58:49.576Z,1.98
2017-05-17T11:01:16.376Z,2.10
2017-05-17T11:03:43.444Z,2.70
2017-05-17T11:06:10.325Z,2.10
2017-05-17T11:08:37.103Z,2.70
2017-05-17T11:11:04.493Z,2.20
2017-05-17T11:13:31.288Z,2.98
2017-05-17T14:45:59.545Z,2.30
2017-05-17T14:48:26.302Z,2.34
2017-05-17T14:50:53.050Z,2.14
2017-05-17T14:53:20.085Z,2.60
2017-05-17T14:55:46.851Z,2.22
2017-05-17T14:58:13.600Z,2.24
2017-05-17T15:00:40.663Z,2.30
2017-05-17T15:03:07.416Z,2.20
2017-05-17T15:05:34.158Z,2.06
2017-05-17T15:08:01.188Z,2.40
2017-05-17T15:10:27.938Z,2.36
2017-05-17T15:12:54.689Z,2.50
2017-05-17T15:15:21.999Z,2.50
2017-05-17T15:17:48.818Z,2.66
2017-05-17T15:20:15.563Z,2.24
2017-05-17T15:22:43.389Z,2.92
2017-05-17T15:25:10.141Z,2.20
2017-05-17T15:27:36.949Z,2.66
2017-05-17T15:30:04.030Z,2.38
2017-05-17T15:32:30.792Z,2.50
2017-05-17T15:34:57.546Z,2.76
2017-05-17T15:37:24.589Z,2.40
2017-05-17T15:39:52.397Z,2.52
2017-05-17T15:42:21.613Z,2.32
2017-05-17T15:44:49.549Z,2.56
2017-05-17T15:47:17.219Z,2.30
2017-05-17T15:49:46.242Z,2.26
2017-05-17T15:52:13.336Z,2.30
2017-05-17T15:54:40.089Z,2.24
2017-05-17T15:57:06.839Z,2.10
2017-05-17T15:59:33.910Z,2.50
2017-05-17T16:02:00.743Z,2.16
2017-05-17T16:04:27.506Z,2.24
2017-05-17T16:06:54.613Z,2.10
2017-05-17T16:09:21.951Z,2.10
2017-05-17T16:11:48.706Z,2.00
2017-05-17T16:14:15.828Z,2.42
2017-05-17T16:16:42.585Z,2.00
2017-05-17T16:19:09.357Z,2.18
2017-05-17T16:21:36.752Z,2.42
2017-05-17T16:24:03.515Z,1.80
2017-05-17T16:26:31.557Z,2.22
2017-05-17T16:28:58.973Z,2.22
2017-05-17T16:31:26.533Z,1.94
2017-05-17T16:33:54.490Z,2.18
2017-05-17T16:36:23.732Z,2.40
2017-05-17T16:38:51.991Z,2.16
2017-05-17T16:41:18.794Z,2.72
2017-05-17T16:43:46.069Z,3.90
2017-05-17T16:46:12.825Z,2.50
2017-05-17T16:48:39.580Z,2.76
2017-05-17T16:51:07.256Z,2.02
2017-05-17T16:53:34.002Z,2.40
2017-05-17T16:56:00.754Z,2.46
2017-05-17T16:58:28.001Z,2.50
2017-05-17T17:00:54.750Z,2.24
2017-05-17T17:03:21.507Z,2.38
2017-05-17T17:05:48.566Z,2.32
2017-05-17T17:08:15.318Z,2.34
2017-05-17T17:10:42.063Z,1.88
2017-05-17T17:13:09.114Z,2.38
2017-05-17T17:15:35.865Z,2.08
2017-05-17T17:18:02.623Z,2.14
2017-05-17T17:20:29.989Z,1.98
2017-05-17T17:22:56.749Z,2.54
2017-05-17T17:25:23.496Z,3.48
2017-05-17T17:27:50.804Z,2.80
2017-05-17T17:30:17.559Z,2.18
2017-05-17T17:32:44.311Z,2.50
2017-05-17T17:35:12.385Z,3.18
2017-05-17T17:37:39.137Z,2.18
2017-05-17T17:40:05.889Z,2.92
2017-05-17T17:42:32.997Z,2.90
2017-05-17T17:44:59.754Z,2.52
2017-05-17T17:47:26.509Z,2.78
2017-05-17T17:49:53.538Z,2.70
2017-05-17T17:52:20.289Z,2.32
2017-05-17T17:54:47.041Z,2.48
2017-05-17T17:57:14.149Z,2.40
2017-05-17T17:59:40.904Z,2.52
2017-05-17T18:02:07.653Z,2.58
2017-05-17T18:04:34.704Z,2.46
2017-05-17T18:07:01.451Z,2.48
2017-05-17T18:09:28.213Z,2.38
2017-05-17T18:11:55.258Z,2.72
2017-05-17T18:14:22.002Z,2.80
2017-05-17T18:16:48.753Z,2.80
2017-05-17T18:19:16.146Z,2.74
2017-05-17T18:21:42.902Z,2.40
2017-05-17T18:24:09.657Z,2.34
2017-05-17T18:26:36.971Z,2.44
2017-05-17T18:29:03.724Z,2.54
2017-05-17T18:31:30.478Z,2.90
2017-05-17T18:33:57.617Z,2.60
2017-05-17T18:36:24.365Z,2.36
2017-05-17T18:38:51.113Z,2.04
2017-05-17T18:41:19.267Z,2.24
2017-05-17T18:43:46.026Z,2.98
2017-05-17T18:46:12.798Z,2.50
2017-05-17T18:48:39.550Z,2.44
2017-05-17T18:51:08.007Z,2.86
2017-05-17T18:53:35.154Z,2.40
2017-05-17T18:56:02.180Z,2.30
2017-05-17T18:58:28.938Z,2.72
2017-05-17T19:00:56.401Z,2.90
2017-05-17T19:03:23.697Z,2.42
2017-05-17T19:05:50.449Z,2.50
2017-05-17T19:08:17.201Z,2.20
2017-05-17T19:10:44.376Z,3.32
2017-05-17T19:13:11.134Z,2.48
2017-05-17T19:15:37.897Z,2.44
2017-05-17T19:18:05.969Z,2.30
2017-05-17T19:20:32.713Z,2.50
2017-05-17T19:22:59.470Z,2.28
2017-05-17T19:25:28.300Z,2.50
2017-05-17T19:27:55.678Z,2.40
2017-05-17T19:30:22.529Z,2.60
2017-05-17T19:32:49.768Z,1.90
2017-05-17T19:35:17.100Z,2.52
2017-05-17T19:37:43.853Z,2.30
2017-05-17T19:40:11.009Z,2.38
2017-05-17T19:42:38.390Z,2.20
2017-05-17T19:45:07.885Z,2.78
2017-05-17T19:47:35.514Z,2.94
2017-05-17T19:50:03.191Z,2.86
2017-05-17T19:52:29.941Z,2.96
2017-05-17T19:54:58.569Z,2.62
2017-05-17T19:57:25.337Z,2.54
2017-05-17T19:59:53.210Z,2.70
2017-05-17T20:02:20.598Z,2.18
2017-05-17T20:04:47.908Z,2.32
2017-05-17T20:07:14.659Z,2.48
2017-05-17T20:09:42.987Z,2.34
2017-05-17T20:12:09.747Z,3.08
2017-05-17T20:14:36.501Z,2.40
2017-05-17T20:17:04.093Z,2.46
2017-05-17T20:19:31.107Z,3.28
2017-05-17T20:21:58.884Z,2.70
2017-05-17T20:24:26.172Z,2.30
2017-05-17T20:26:52.933Z,2.48
2017-05-17T20:29:19.687Z,2.74
2017-05-17T20:31:46.877Z,2.20
2017-05-17T20:34:13.677Z,2.50
2017-05-17T20:36:42.134Z,2.56
2017-05-17T20:39:09.189Z,2.36
2017-05-17T20:41:35.944Z,2.38
2017-05-17T20:44:05.606Z,2.32
2017-05-17T20:46:33.616Z,2.74
2017-05-17T20:49:00.413Z,1.98
2017-05-17T20:51:28.928Z,2.78
2017-05-17T20:53:56.179Z,3.02
2017-05-17T20:56:22.931Z,2.88
2017-05-17T20:58:50.817Z,3.34
2017-05-17T21:01:18.386Z,2.64
2017-05-17T21:03:45.142Z,3.10
2017-05-17T21:06:11.884Z,3.38
2017-05-17T21:08:39.363Z,2.76
2017-05-17T21:11:06.136Z,3.70
2017-05-17T21:13:32.884Z,3.00
2017-05-17T21:15:59.958Z,3.24
2017-05-17T21:18:26.725Z,2.86
2017-05-17T21:20:53.464Z,3.10
2017-05-17T21:23:20.787Z,2.94
2017-05-17T21:25:47.605Z,3.52
2017-05-17T21:28:15.827Z,3.56
2017-05-17T21:30:43.285Z,3.16
2017-05-17T21:33:10.307Z,2.90
2017-05-17T21:35:37.052Z,3.22
2017-05-17T21:38:05.099Z,3.10
2017-05-17T21:40:31.906Z,3.30
2017-05-17T21:42:58.834Z,3.22
2017-05-17T21:45:26.070Z,3.30
2017-05-17T21:47:52.817Z,2.88
2017-05-17T21:50:20.308Z,3.34
2017-05-17T21:52:50.505Z,3.56
2017-05-17T21:55:17.256Z,2.90
2017-05-17T21:57:44.449Z,3.30
2017-05-17T22:00:13.390Z,3.78
2017-05-17T22:02:40.669Z,3.04
2017-05-17T22:05:07.424Z,2.76
2017-05-17T22:07:34.478Z,2.52
2017-05-17T22:10:01.676Z,3.04
2017-05-17T22:12:28.435Z,3.74
2017-05-17T22:14:55.574Z,3.18
2017-05-17T22:17:22.330Z,3.60
2017-05-17T22:19:49.075Z,3.02
2017-05-17T22:22:16.401Z,3.58
2017-05-17T22:24:43.150Z,3.06
2017-05-17T22:27:09.900Z,3.60
2017-05-17T22:29:38.330Z,3.40
2017-05-17T22:32:06.938Z,3.40
2017-05-17T22:34:34.449Z,3.66
2017-05-17T22:37:01.645Z,4.30
2017-05-17T22:39:28.409Z,3.86
2017-05-17T22:41:55.156Z,3.60
2017-05-17T22:44:22.297Z,4.04
2017-05-17T22:46:49.049Z,4.50
2017-05-17T22:49:16.153Z,3.52
2017-05-17T22:51:43.312Z,4.46
2017-05-17T22:54:11.493Z,4.22
2017-05-17T22:56:38.257Z,4.82
2017-05-17T22:59:08.282Z,4.16
2017-05-17T23:01:36.967Z,4.18
2017-05-17T23:04:03.732Z,4.12
2017-05-17T23:06:31.158Z,4.32
2017-05-17T23:08:57.906Z,4.32
2017-05-17T23:11:25.550Z,4.28
2017-05-17T23:13:53.578Z,4.14
2017-05-17T23:16:20.338Z,4.08
2017-05-17T23:18:47.096Z,4.24
2017-05-17T23:21:14.345Z,4.60
2017-05-17T23:23:41.095Z,4.48
2017-05-17T23:26:07.852Z,4.90
2017-05-17T23:28:34.935Z,4.56
2017-05-17T23:31:02.312Z,5.08
2017-05-17T23:33:29.081Z,3.46
2017-05-17T23:35:57.033Z,4.90
2017-05-17T23:38:23.792Z,4.90
2017-05-17T23:40:51.299Z,4.50
2017-05-17T23:43:18.848Z,4.66
2017-05-17T23:45:46.370Z,5.24
2017-05-17T23:48:13.122Z,4.72
2017-05-17T23:50:40.197Z,4.20
2017-05-17T23:53:06.950Z,4.62
2017-05-17T23:55:33.702Z,4.32
2017-05-17T23:58:00.738Z,4.56
